createdAt,value
2022-08-17T00:00:35.041Z,17.20
2022-08-17T00:03:10.081Z,17.20
2022-08-17T00:05:40.496Z,17.10
2022-08-17T00:08:09.024Z,17.10
2022-08-17T00:10:37.675Z,17.00
2022-08-17T00:13:11.410Z,17.00
2022-08-17T00:15:41.183Z,17.00
2022-08-17T00:19:01.685Z,17.00
2022-08-17T00:20:58.923Z,17.00
2022-08-17T00:23:28.051Z,17.00
2022-08-17T00:25:56.293Z,16.90
2022-08-17T00:28:25.193Z,16.90
2022-08-17T00:30:55.740Z,16.80
2022-08-17T00:33:26.512Z,16.80
2022-08-17T00:35:56.254Z,16.80
2022-08-17T00:38:25.140Z,16.70
2022-08-17T00:40:59.345Z,16.70
2022-08-17T00:43:31.604Z,16.60
2022-08-17T00:46:02.893Z,16.60
2022-08-17T00:48:31.876Z,16.50
2022-08-17T00:51:06.643Z,16.50
2022-08-17T00:53:39.261Z,16.40
2022-08-17T00:56:15.797Z,16.40
2022-08-17T00:58:44.135Z,16.40
2022-08-17T01:01:21.813Z,16.40
2022-08-17T01:03:51.770Z,16.30
2022-08-17T01:06:20.723Z,16.30
2022-08-17T01:08:57.581Z,16.30
2022-08-17T01:11:26.438Z,16.30
2022-08-17T01:13:54.661Z,16.30
2022-08-17T01:16:27.025Z,16.20
2022-08-17T01:18:58.081Z,16.20
2022-08-17T01:21:34.250Z,16.30
2022-08-17T01:24:04.356Z,16.30
2022-08-17T01:26:34.220Z,16.30
2022-08-17T01:29:04.172Z,16.20
2022-08-17T01:31:36.891Z,16.20
2022-08-17T01:34:08.658Z,16.20
2022-08-17T01:36:37.448Z,16.20
2022-08-17T01:39:10.501Z,16.20
2022-08-17T01:41:41.591Z,16.10
2022-08-17T01:44:11.930Z,16.10
2022-08-17T01:46:40.008Z,16.10
2022-08-17T01:49:09.488Z,16.10
2022-08-17T01:51:38.509Z,16.10
2022-08-17T01:54:13.685Z,16.10
2022-08-17T01:56:47.821Z,16.00
2022-08-17T01:59:16.713Z,15.90
2022-08-17T02:01:45.731Z,15.90
2022-08-17T02:04:14.337Z,15.80
2022-08-17T02:06:52.603Z,15.70
2022-08-17T02:09:25.462Z,15.70
2022-08-17T02:11:54.440Z,15.60
2022-08-17T02:14:23.345Z,15.60
2022-08-17T02:16:51.801Z,15.60
2022-08-17T02:19:20.416Z,15.50
2022-08-17T02:21:50.828Z,15.50
2022-08-17T02:24:58.615Z,15.50
2022-08-17T02:27:13.473Z,15.50
2022-08-17T02:29:41.581Z,15.40
2022-08-17T02:32:20.650Z,15.30
2022-08-17T02:34:57.378Z,15.30
2022-08-17T02:37:25.740Z,15.20
2022-08-17T02:39:56.978Z,15.20
2022-08-17T02:42:28.788Z,15.20
2022-08-17T02:44:56.937Z,15.20
2022-08-17T02:47:25.190Z,15.10
2022-08-17T02:49:54.303Z,15.10
2022-08-17T02:52:43.442Z,15.20
2022-08-17T02:55:18.409Z,15.20
2022-08-17T02:57:46.749Z,15.20
2022-08-17T03:00:22.243Z,15.20
2022-08-17T03:02:51.666Z,15.10
2022-08-17T03:05:22.633Z,15.10
2022-08-17T03:07:51.074Z,15.10
2022-08-17T03:10:21.602Z,15.10
2022-08-17T03:12:50.337Z,15.10
2022-08-17T03:15:21.966Z,15.10
2022-08-17T03:17:52.078Z,15.10
2022-08-17T03:20:21.877Z,15.10
2022-08-17T03:22:53.515Z,15.10
2022-08-17T03:25:26.535Z,15.10
2022-08-17T03:27:55.214Z,15.00
2022-08-17T03:30:24.963Z,15.00
2022-08-17T03:32:55.720Z,15.00
2022-08-17T03:35:27.558Z,15.00
2022-08-17T03:38:00.399Z,15.00
2022-08-17T03:40:34.639Z,15.00
2022-08-17T03:43:22.313Z,15.00
2022-08-17T03:46:11.078Z,15.00
2022-08-17T03:49:14.421Z,14.90
2022-08-17T03:51:59.957Z,14.90
2022-08-17T03:54:45.617Z,14.80
2022-08-17T03:57:15.326Z,14.80
2022-08-17T03:59:43.554Z,14.80
2022-08-17T04:02:18.426Z,14.70
2022-08-17T04:04:46.572Z,14.60
2022-08-17T04:07:14.622Z,14.60
2022-08-17T04:09:43.618Z,14.50
2022-08-17T04:12:12.190Z,14.50
2022-08-17T04:14:53.382Z,14.50
2022-08-17T04:17:24.856Z,14.40
2022-08-17T04:19:53.321Z,14.40
2022-08-17T04:22:32.183Z,14.40
2022-08-17T04:25:10.712Z,14.40
2022-08-17T04:27:38.874Z,14.40
2022-08-17T04:30:09.873Z,14.40
2022-08-17T04:33:04.252Z,14.40
2022-08-17T04:35:38.296Z,14.40
2022-08-17T04:38:07.758Z,14.40
2022-08-17T04:40:54.310Z,14.40
2022-08-17T04:43:23.352Z,14.40
2022-08-17T04:45:56.340Z,14.40
2022-08-17T04:48:36.487Z,14.50
2022-08-17T04:51:09.170Z,14.50
2022-08-17T04:53:37.478Z,14.50
2022-08-17T04:56:06.056Z,14.60
2022-08-17T04:58:34.254Z,14.60
2022-08-17T05:01:04.077Z,14.70
2022-08-17T05:03:32.914Z,14.70
2022-08-17T05:06:00.977Z,14.80
2022-08-17T05:08:29.065Z,14.80
2022-08-17T05:10:57.162Z,14.90
2022-08-17T05:13:27.563Z,15.00
2022-08-17T05:15:57.957Z,15.10
2022-08-17T05:18:28.489Z,15.20
2022-08-17T05:20:57.859Z,15.30
2022-08-17T05:23:41.658Z,15.40
2022-08-17T05:26:26.401Z,15.50
2022-08-17T05:28:57.281Z,15.70
2022-08-17T05:31:29.733Z,15.80
2022-08-17T05:33:59.496Z,15.90
2022-08-17T05:36:41.882Z,16.00
2022-08-17T05:39:16.309Z,16.10
2022-08-17T05:41:48.513Z,16.20
2022-08-17T05:44:17.227Z,16.40
2022-08-17T05:46:50.017Z,16.50
2022-08-17T05:49:27.266Z,16.60
2022-08-17T05:52:14.741Z,16.70
2022-08-17T05:54:59.290Z,16.80
2022-08-17T05:57:43.492Z,17.00
2022-08-17T06:00:30.382Z,17.10
2022-08-17T06:03:20.037Z,17.30
2022-08-17T06:06:02.327Z,17.40
2022-08-17T06:08:36.271Z,17.50
2022-08-17T06:11:13.008Z,17.60
2022-08-17T06:13:56.973Z,17.80
2022-08-17T06:16:34.183Z,17.90
2022-08-17T06:19:08.138Z,18.00
2022-08-17T06:21:42.074Z,18.10
2022-08-17T06:24:27.507Z,18.30
2022-08-17T06:26:57.886Z,18.40
2022-08-17T06:29:38.698Z,18.50
2022-08-17T06:32:10.516Z,18.70
2022-08-17T06:34:42.382Z,18.80
2022-08-17T06:37:27.393Z,18.90
2022-08-17T06:40:09.908Z,19.00
2022-08-17T06:42:59.973Z,19.10
2022-08-17T06:45:38.819Z,19.30
2022-08-17T06:48:14.103Z,19.40
2022-08-17T06:50:48.712Z,19.50
2022-08-17T06:53:23.886Z,19.60
2022-08-17T06:55:59.874Z,19.80
2022-08-17T06:58:31.488Z,19.90
2022-08-17T07:01:07.058Z,20.00
2022-08-17T07:03:39.803Z,20.10
2022-08-17T07:06:14.578Z,20.30
2022-08-17T07:08:54.073Z,20.50
2022-08-17T07:11:28.374Z,20.60
2022-08-17T07:17:47.629Z,20.90
2022-08-17T07:20:20.507Z,21.10
2022-08-17T07:22:59.609Z,21.20
2022-08-17T07:25:31.256Z,21.40
2022-08-17T07:28:06.011Z,21.50
2022-08-17T07:30:46.892Z,21.70
2022-08-17T07:33:20.308Z,21.80
2022-08-17T07:35:50.220Z,22.00
2022-08-17T07:38:25.310Z,22.20
2022-08-17T07:41:02.779Z,22.40
2022-08-17T07:43:33.005Z,22.50
2022-08-17T07:46:32.143Z,22.60
2022-08-17T07:49:22.994Z,22.70
2022-08-17T07:52:48.014Z,22.90
2022-08-17T07:54:49.076Z,23.10
2022-08-17T07:57:32.885Z,23.30
2022-08-17T08:00:32.808Z,23.40
2022-08-17T08:03:06.148Z,23.50
2022-08-17T08:05:50.420Z,23.60
2022-08-17T08:08:32.168Z,23.80
2022-08-17T08:11:05.341Z,24.00
2022-08-17T08:13:36.116Z,24.10
2022-08-17T08:16:20.769Z,24.20
2022-08-17T08:18:55.872Z,24.30
2022-08-17T08:21:34.491Z,24.40
2022-08-17T08:24:14.111Z,24.50
2022-08-17T08:26:47.438Z,24.60
2022-08-17T08:29:28.448Z,24.80
2022-08-17T08:32:06.296Z,25.00
2022-08-17T08:35:03.023Z,25.10
2022-08-17T08:37:43.343Z,25.20
2022-08-17T08:40:23.565Z,25.30
2022-08-17T08:43:00.115Z,25.50
2022-08-17T08:45:38.258Z,25.60
2022-08-17T08:48:46.105Z,25.70
2022-08-17T08:51:20.306Z,25.80
2022-08-17T08:53:58.732Z,25.90
2022-08-17T08:56:35.379Z,26.10
2022-08-17T08:59:24.898Z,26.20
2022-08-17T09:02:04.214Z,26.20
2022-08-17T09:05:13.456Z,26.40
2022-08-17T09:07:48.883Z,26.50
2022-08-17T09:10:24.583Z,26.70
2022-08-17T09:13:09.162Z,26.80
2022-08-17T09:15:43.649Z,26.90
2022-08-17T09:19:01.132Z,27.00
2022-08-17T09:21:15.446Z,27.10
2022-08-17T09:23:59.774Z,27.20
2022-08-17T09:26:34.087Z,27.30
2022-08-17T09:29:08.780Z,27.40
2022-08-17T09:31:48.690Z,27.50
2022-08-17T09:34:33.298Z,27.70
2022-08-17T09:37:16.115Z,28.00
2022-08-17T09:39:52.642Z,28.10
2022-08-17T09:42:28.161Z,28.20
2022-08-17T09:45:03.074Z,28.20
2022-08-17T09:47:36.866Z,28.20
2022-08-17T09:50:13.584Z,28.30
2022-08-17T09:52:43.206Z,28.50
2022-08-17T09:55:11.525Z,28.60
2022-08-17T09:57:52.027Z,28.70
2022-08-17T10:00:25.614Z,28.80
2022-08-17T10:03:09.733Z,28.80
2022-08-17T10:05:46.701Z,29.10
2022-08-17T10:08:28.091Z,29.30
2022-08-17T10:11:08.009Z,29.40
2022-08-17T10:13:52.664Z,29.50
2022-08-17T10:16:31.138Z,29.50
2022-08-17T10:19:13.745Z,29.60
2022-08-17T10:22:32.784Z,29.70
2022-08-17T10:25:22.846Z,29.70
2022-08-17T10:27:55.692Z,30.00
2022-08-17T10:30:27.632Z,30.30
2022-08-17T10:32:59.292Z,30.40
2022-08-17T10:35:44.699Z,30.40
2022-08-17T10:38:36.557Z,30.50
2022-08-17T10:41:17.277Z,30.60
2022-08-17T10:44:36.671Z,30.60
2022-08-17T10:47:06.752Z,30.70
2022-08-17T10:49:36.453Z,30.80
2022-08-17T10:52:24.906Z,31.00
2022-08-17T10:55:13.858Z,31.10
2022-08-17T10:57:46.107Z,31.30
2022-08-17T11:00:31.413Z,31.40
2022-08-17T11:03:01.099Z,31.40
2022-08-17T11:05:50.398Z,31.30
2022-08-17T11:09:02.517Z,31.10
2022-08-17T11:11:47.448Z,31.10
2022-08-17T11:14:28.254Z,31.20
2022-08-17T11:17:26.101Z,31.20
2022-08-17T11:20:24.900Z,31.30
2022-08-17T11:23:18.400Z,31.40
2022-08-17T11:25:52.291Z,31.40
2022-08-17T11:28:26.493Z,31.60
2022-08-17T11:30:57.671Z,31.80
2022-08-17T11:33:53.702Z,31.80
2022-08-17T11:36:34.777Z,31.90
2022-08-17T11:39:16.547Z,32.00
2022-08-17T11:41:51.758Z,32.20
2022-08-17T11:44:26.757Z,32.40
2022-08-17T11:47:27.015Z,32.50
2022-08-17T11:50:29.589Z,32.60
2022-08-17T11:52:58.002Z,32.70
2022-08-17T11:56:05.068Z,32.70
2022-08-17T11:58:41.517Z,32.80
2022-08-17T12:01:13.618Z,32.90
2022-08-17T12:03:54.124Z,33.10
2022-08-17T12:06:45.012Z,33.20
2022-08-17T12:09:18.101Z,33.50
2022-08-17T12:11:56.393Z,33.60
2022-08-17T12:17:40.434Z,33.60
2022-08-17T12:20:15.156Z,33.80
2022-08-17T12:22:54.891Z,34.00
2022-08-17T12:25:32.852Z,34.30
2022-08-17T12:28:06.400Z,34.60
2022-08-17T12:30:37.438Z,34.80
2022-08-17T12:33:13.487Z,35.00
2022-08-17T12:36:00.095Z,35.10
2022-08-17T12:38:32.568Z,35.20
2022-08-17T12:41:24.385Z,35.20
2022-08-17T12:44:02.073Z,35.00
2022-08-17T12:46:34.817Z,34.90
2022-08-17T12:49:17.329Z,34.90
2022-08-17T12:51:47.620Z,34.90
2022-08-17T12:54:28.262Z,34.90
2022-08-17T12:56:57.034Z,34.90
2022-08-17T12:59:30.219Z,35.00
2022-08-17T13:01:59.178Z,35.00
2022-08-17T13:04:29.507Z,35.10
2022-08-17T13:06:59.956Z,35.20
2022-08-17T13:09:33.556Z,35.20
2022-08-17T13:12:09.055Z,35.30
2022-08-17T13:14:37.467Z,35.30
2022-08-17T13:17:12.690Z,35.30
2022-08-17T13:19:51.041Z,35.30
2022-08-17T13:22:24.557Z,35.30
2022-08-17T13:24:54.838Z,35.30
2022-08-17T13:27:25.450Z,35.30
2022-08-17T13:29:57.614Z,35.40
2022-08-17T13:32:36.901Z,35.40
2022-08-17T13:35:48.296Z,35.50
2022-08-17T13:38:40.514Z,35.90
2022-08-17T13:41:08.962Z,36.50
2022-08-17T13:43:45.585Z,37.40
2022-08-17T13:46:21.087Z,38.00
2022-08-17T13:48:59.581Z,38.50
2022-08-17T13:51:33.409Z,38.80
2022-08-17T13:54:09.454Z,39.60
2022-08-17T13:56:50.669Z,39.50
2022-08-17T13:59:53.421Z,39.20
2022-08-17T14:02:20.575Z,39.30
2022-08-17T14:04:50.536Z,39.20
2022-08-17T14:07:35.159Z,39.70
2022-08-17T14:10:13.076Z,40.30
2022-08-17T14:12:42.932Z,40.60
2022-08-17T14:15:13.101Z,40.60
2022-08-17T14:17:41.293Z,41.10
2022-08-17T14:20:12.328Z,41.60
2022-08-17T14:22:46.289Z,41.80
2022-08-17T14:25:16.505Z,41.70
2022-08-17T14:27:52.114Z,41.60
2022-08-17T14:30:23.814Z,41.80
2022-08-17T14:32:52.760Z,42.50
2022-08-17T14:35:23.327Z,43.20
2022-08-17T14:37:54.333Z,43.90
2022-08-17T14:40:25.439Z,44.10
2022-08-17T14:42:55.827Z,44.20
2022-08-17T14:45:30.250Z,44.50
2022-08-17T14:48:02.706Z,44.90
2022-08-17T14:50:31.831Z,45.30
2022-08-17T14:53:04.474Z,45.50
2022-08-17T14:55:33.468Z,45.70
2022-08-17T14:58:03.882Z,46.10
2022-08-17T15:00:32.073Z,46.60
2022-08-17T15:03:01.687Z,46.90
2022-08-17T15:05:33.526Z,47.10
2022-08-17T15:08:04.685Z,47.20
2022-08-17T15:10:33.451Z,47.60
2022-08-17T15:13:01.558Z,47.80
2022-08-17T15:15:30.330Z,48.20
2022-08-17T15:17:59.951Z,48.40
2022-08-17T15:20:30.559Z,48.20
2022-08-17T15:22:59.649Z,48.20
2022-08-17T15:25:31.838Z,47.80
2022-08-17T15:28:00.946Z,46.60
2022-08-17T15:30:29.881Z,45.30
2022-08-17T15:32:59.305Z,44.90
2022-08-17T15:35:32.473Z,45.10
2022-08-17T15:38:09.901Z,45.40
2022-08-17T15:40:43.298Z,45.80
2022-08-17T15:43:14.975Z,46.30
2022-08-17T15:45:43.557Z,46.70
2022-08-17T15:48:14.151Z,46.80
2022-08-17T15:50:42.310Z,46.80
2022-08-17T15:53:10.690Z,46.60
2022-08-17T15:55:43.954Z,46.30
2022-08-17T15:58:12.357Z,45.70
2022-08-17T16:00:49.918Z,45.40
2022-08-17T16:03:58.445Z,45.20
2022-08-17T16:06:14.074Z,45.10
2022-08-17T16:08:43.811Z,45.20
2022-08-17T16:11:14.720Z,45.50
2022-08-17T16:13:54.519Z,45.60
2022-08-17T16:16:24.389Z,45.50
2022-08-17T16:18:53.603Z,44.80
2022-08-17T16:21:27.350Z,44.60
2022-08-17T16:23:57.271Z,44.60
2022-08-17T16:26:27.070Z,44.60
2022-08-17T16:28:55.768Z,44.40
2022-08-17T16:31:24.478Z,43.90
2022-08-17T16:34:15.503Z,43.50
2022-08-17T16:36:41.461Z,43.00
2022-08-17T16:39:22.035Z,42.80
2022-08-17T16:41:51.575Z,42.50
2022-08-17T16:44:22.571Z,42.10
2022-08-17T16:46:51.573Z,41.90
2022-08-17T16:49:36.156Z,41.80
2022-08-17T16:52:10.131Z,41.60
2022-08-17T16:54:40.602Z,41.30
2022-08-17T16:57:10.413Z,40.90
2022-08-17T16:59:42.220Z,40.60
2022-08-17T17:02:15.264Z,40.40
2022-08-17T17:04:50.701Z,40.20
2022-08-17T17:07:38.758Z,40.00
2022-08-17T17:10:10.749Z,40.00
2022-08-17T17:13:02.006Z,39.90
2022-08-17T17:15:42.897Z,39.70
2022-08-17T17:18:14.842Z,39.50
2022-08-17T17:20:50.672Z,39.00
2022-08-17T17:23:36.117Z,38.40
2022-08-17T17:26:18.735Z,37.90
2022-08-17T17:29:01.993Z,37.40
2022-08-17T17:31:38.151Z,37.00
2022-08-17T17:34:11.545Z,36.40
2022-08-17T17:36:45.336Z,36.00
2022-08-17T17:39:16.660Z,35.70
2022-08-17T17:41:49.652Z,35.30
2022-08-17T17:44:23.896Z,34.70
2022-08-17T17:46:57.331Z,34.20
2022-08-17T17:49:26.924Z,33.70
2022-08-17T17:52:10.017Z,33.30
2022-08-17T17:55:00.095Z,33.00
2022-08-17T17:57:45.347Z,32.60
2022-08-17T18:00:16.237Z,32.20
2022-08-17T18:02:56.560Z,31.80
2022-08-17T18:05:42.314Z,31.50
2022-08-17T18:08:32.090Z,31.20
2022-08-17T18:11:14.152Z,30.90
2022-08-17T18:14:04.721Z,30.70
2022-08-17T18:16:35.043Z,30.40
2022-08-17T18:19:03.313Z,30.20
2022-08-17T18:21:38.639Z,30.00
2022-08-17T18:24:10.520Z,29.70
2022-08-17T18:26:50.071Z,29.50
2022-08-17T18:29:37.885Z,29.30
2022-08-17T18:32:19.702Z,29.10
2022-08-17T18:34:50.639Z,28.90
2022-08-17T18:37:36.004Z,28.60
2022-08-17T18:40:30.160Z,28.40
2022-08-17T18:43:08.828Z,28.10
2022-08-17T18:45:42.781Z,27.90
2022-08-17T18:48:23.082Z,27.70
2022-08-17T18:50:53.590Z,27.50
2022-08-17T18:53:34.105Z,27.20
2022-08-17T18:56:24.220Z,27.10
2022-08-17T18:59:05.110Z,26.80
2022-08-17T19:02:10.248Z,26.60
2022-08-17T19:04:55.701Z,26.30
2022-08-17T19:07:29.644Z,26.10
2022-08-17T19:10:03.952Z,25.80
2022-08-17T19:12:38.274Z,25.60
2022-08-17T19:15:10.057Z,25.40
2022-08-17T19:17:45.429Z,25.20
2022-08-17T19:20:19.674Z,25.10
2022-08-17T19:23:01.604Z,24.90
2022-08-17T19:25:34.325Z,24.80
2022-08-17T19:28:15.362Z,24.60
2022-08-17T19:30:51.733Z,24.50
2022-08-17T19:33:20.461Z,24.40
2022-08-17T19:35:58.934Z,24.30
2022-08-17T19:38:37.308Z,24.30
2022-08-17T19:41:12.981Z,24.20
2022-08-17T19:44:07.839Z,24.10
2022-08-17T19:46:48.605Z,24.00
2022-08-17T19:49:33.385Z,23.80
2022-08-17T19:52:22.146Z,23.70
2022-08-17T19:54:55.815Z,23.70
2022-08-17T19:57:32.260Z,23.60
2022-08-17T20:00:05.460Z,23.70
2022-08-17T20:02:42.681Z,23.70
2022-08-17T20:05:19.367Z,23.70
2022-08-17T20:07:55.367Z,23.60
2022-08-17T20:10:38.106Z,23.50
2022-08-17T20:13:11.082Z,23.50
2022-08-17T20:15:42.299Z,23.40
2022-08-17T20:18:17.389Z,23.40
2022-08-17T20:20:56.540Z,23.30
2022-08-17T20:23:38.109Z,23.30
2022-08-17T20:26:19.269Z,23.30
2022-08-17T20:29:10.558Z,23.20
2022-08-17T20:31:47.150Z,23.20
2022-08-17T20:34:37.382Z,23.20
2022-08-17T20:37:10.250Z,23.10
2022-08-17T20:39:42.931Z,23.00
2022-08-17T20:42:28.358Z,23.00
2022-08-17T20:44:59.654Z,23.00
2022-08-17T20:47:32.566Z,22.90
2022-08-17T20:50:04.276Z,22.80
2022-08-17T20:52:52.006Z,22.80
2022-08-17T20:55:53.205Z,22.70
2022-08-17T20:58:49.344Z,22.70
2022-08-17T21:01:31.943Z,22.70
2022-08-17T21:04:00.038Z,22.60
2022-08-17T21:06:29.867Z,22.50
2022-08-17T21:09:19.341Z,22.50
2022-08-17T21:12:04.454Z,22.40
2022-08-17T21:14:57.403Z,22.30
2022-08-17T21:17:44.285Z,22.20
2022-08-17T21:20:28.118Z,22.10
2022-08-17T21:23:31.231Z,22.10
2022-08-17T21:26:11.582Z,22.00
2022-08-17T21:29:00.230Z,22.00
2022-08-17T21:31:36.510Z,21.90
2022-08-17T21:34:32.913Z,21.90
2022-08-17T21:37:29.803Z,21.90
2022-08-17T21:40:01.375Z,21.90
2022-08-17T21:42:32.568Z,21.90
2022-08-17T21:45:11.746Z,21.80
2022-08-17T21:47:45.262Z,21.80
2022-08-17T21:50:21.273Z,21.80
2022-08-17T21:52:49.991Z,21.80
2022-08-17T21:55:29.013Z,21.80
2022-08-17T21:58:14.594Z,21.80
2022-08-17T22:00:45.301Z,21.80
2022-08-17T22:03:24.642Z,21.80
2022-08-17T22:05:52.965Z,21.80
2022-08-17T22:08:23.766Z,21.80
2022-08-17T22:11:02.785Z,21.70
2022-08-17T22:13:31.024Z,21.70
2022-08-17T22:16:15.335Z,21.70
2022-08-17T22:18:57.789Z,21.70
2022-08-17T22:21:26.496Z,21.70
2022-08-17T22:24:06.531Z,21.60
2022-08-17T22:27:01.191Z,21.60
2022-08-17T22:29:58.010Z,21.60
2022-08-17T22:32:49.917Z,21.60
2022-08-17T22:35:36.616Z,21.60
2022-08-17T22:38:27.670Z,21.60
2022-08-17T22:41:13.522Z,21.60
2022-08-17T22:43:43.134Z,21.50
2022-08-17T22:46:14.986Z,21.60
2022-08-17T22:48:51.244Z,21.60
2022-08-17T22:51:22.840Z,21.60
2022-08-17T22:54:13.652Z,21.60
2022-08-17T22:57:07.047Z,21.70
2022-08-17T22:59:45.790Z,21.70
2022-08-17T23:02:23.870Z,21.70
2022-08-17T23:04:57.551Z,21.70
2022-08-17T23:07:25.757Z,21.70
2022-08-17T23:09:55.010Z,21.70
2022-08-17T23:12:27.361Z,21.70
2022-08-17T23:15:01.533Z,21.80
2022-08-17T23:17:35.088Z,21.80
2022-08-17T23:20:08.397Z,21.80
2022-08-17T23:22:38.269Z,21.80
2022-08-17T23:25:28.197Z,21.80
2022-08-17T23:28:00.557Z,21.90
2022-08-17T23:30:30.379Z,21.90
2022-08-17T23:33:01.269Z,22.00
2022-08-17T23:35:40.136Z,22.10
2022-08-17T23:38:10.493Z,22.20
2022-08-17T23:40:39.427Z,22.10
2022-08-17T23:43:23.343Z,22.00
2022-08-17T23:45:54.958Z,22.00
2022-08-17T23:48:27.812Z,21.90
2022-08-17T23:51:08.976Z,22.00
2022-08-17T23:53:38.672Z,22.10
2022-08-17T23:56:11.103Z,22.20
2022-08-17T23:58:42.251Z,22.20
